• Join FlightAware (Why Join?)
  • Login
  • US Flag 
06:48AM EDT


 

Airport Tracker/Info


-or-


 

Live Flight TrackerFlight Track Log ✈ FLG3862 ✈ 14-Apr-2013 ✈ KBTV - KDTW

Flight Track Log - Related Links

Times and Time Zones

All times are in EDT time to prevent confusion due to time zone crossing. See the FLG3862 flight status page for this flight to view local times or setup timezone preferences in your user account.

Time Position Orientation Groundspeed Altitude Reporting Facility
EDT Latitude Longitude Course Direction KTS MPH feet Rate Location/Type
12:37PM 44.5144 -73.2872 272° West 219 252 4,900  Level Boston Center
12:38PM 44.4992 -73.3744 256° West 247 284 7,600 2,580 Climbing Boston Center
12:39PM 44.4839 -73.4642 257° West 262 302 10,200 2,160 Climbing Boston Center
12:40PM 44.4597 -73.5831 254° West 278 320 11,900 1,560 Climbing Boston Center
12:41PM 44.3397 -73.8887 259° West  Level FlightAware Approximate
12:41PM 44.4356 -73.7019 254° West 305 351 13,400  Level Boston Center
12:42PM 44.4092 -73.8319 254° West 320 368 15,500 2,040 Climbing Boston Center
12:43PM 44.3867 -73.9564 256° West 332 382 17,500 1,800 Climbing Boston Center
12:44PM 44.3600 -74.0806 253° West 337 388 19,100 1,260 Climbing Boston Center
12:45PM 44.3372 -74.2106 256° West 337 388 20,200 1,260 Climbing Boston Center
12:46PM 44.3103 -74.3403 254° West 337 388 21,700 1,500 Climbing Boston Center
12:47PM 44.2850 -74.4700 255° West 337 388 23,200 1,380 Climbing Boston Center
12:48PM 44.2600 -74.5881 254° West 337 388 24,500 1,140 Climbing Boston Center
12:49PM 44.2369 -74.7119 255° West 337 388 25,500 960 Climbing Boston Center
12:50PM 44.2114 -74.8356 254° West 337 388 26,500 960 Climbing Boston Center
12:51PM 44.1881 -74.9533 255° West 337 388 27,500 720 Climbing Boston Center
12:52PM 44.1622 -75.0767 254° West 337 388 28,000 240 Climbing Boston Center
12:53PM 44.1361 -75.2114 255° West 342 394 28,000  Level Boston Center
12:54PM 44.1081 -75.3431 254° West 354 407 28,000  Level Boston Center
12:55PM 44.0772 -75.4833 253° West 359 413 28,000  Level Boston Center
12:56PM 44.0483 -75.6233 254° West 372 428 28,000  Level Boston Center
12:57PM 44.0194 -75.7664 254° West 378 435 28,000  Level Boston Center
12:58PM 43.9903 -75.9061 254° West 378 435 28,000  Level Boston Center
12:59PM 43.9611 -76.0428 254° West 378 435 28,000  Level Boston Center
01:00PM 43.9519 -76.1925 265° West 378 435 28,000  Level Boston Center
01:01PM 43.9472 -76.3336 267° West 373 429 28,000  Level Boston Center
01:02PM 43.9425 -76.4744 267° West 373 429 28,000  Level Boston Center
01:03PM 43.9167 -76.6500 259° West 370 426 28,000  Level Toronto Center
01:04PM 43.9167 -76.7833 270° West 370 426 28,000  Level Toronto Center
01:05PM 43.9167 -76.9500 270° West 380 437 28,000  Level Toronto Center
01:06PM 43.9167 -77.0833 270° West 370 426 28,000  Level Toronto Center
01:07PM 43.9000 -77.2333 261° West 380 437 28,000  Level Toronto Center
01:08PM 43.9000 -77.3667 270° West 380 437 28,000  Level Toronto Center
01:09PM 43.9000 -77.5333 270° West 380 437 28,000  Level Toronto Center
01:10PM 43.9000 -77.6667 270° West 370 426 28,000  Level Toronto Center
01:11PM 43.8833 -77.8000 260° West 370 426 28,000  Level Toronto Center
01:12PM 43.8833 -77.9500 270° West 370 426 28,000  Level Toronto Center
01:13PM 43.8667 -78.0833 260° West 370 426 28,000  Level Toronto Center
01:14PM 43.8667 -78.2167 270° West 360 414 28,000  Level Toronto Center
01:15PM 43.8500 -78.3667 261° West 360 414 28,000  Level Toronto Center
01:16PM 43.8667 -78.5000 280° West 360 414 28,000  Level Toronto Center
01:17PM 43.8167 -78.6333 243° Southwest 380 437 28,000  Level Toronto Center
01:18PM 43.7500 -78.7500 232° Southwest 390 449 28,000  Level Toronto Center
01:19PM 43.6833 -78.9000 238° Southwest 390 449 28,000  Level Toronto Center
01:20PM 43.6333 -79.0167 239° Southwest 390 449 28,000  Level Toronto Center
01:21PM 43.5667 -79.1333 232° Southwest 390 449 28,000  Level Toronto Center
01:22PM 43.5000 -79.2500 232° Southwest 390 449 28,000  Level Toronto Center
01:23PM 43.4500 -79.3833 243° Southwest 390 449 28,000  Level Toronto Center
01:24PM 43.3833 -79.5000 232° Southwest 390 449 28,000  Level Toronto Center
01:25PM 43.3333 -79.6167 240° Southwest 390 449 28,000  Level Toronto Center
01:26PM 43.2667 -79.7500 236° Southwest 390 449 28,000  Level Toronto Center
01:27PM 43.2000 -79.8667 232° Southwest 390 449 28,000  Level Toronto Center
01:28PM 43.1500 -80.0000 243° Southwest 390 449 28,000  Level Toronto Center
01:29PM 43.0833 -80.1167 232° Southwest 390 449 28,000 -300 Level Toronto Center
01:30PM 43.0167 -80.2333 232° Southwest 390 449 27,400 -1,080 Descending Toronto Center
01:31PM 42.9667 -80.3667 243° Southwest 400 460 25,900 -1,500 Descending Toronto Center
01:32PM 42.9000 -80.4833 232° Southwest 390 449 24,400 -1,500 Descending Toronto Center
01:33PM 42.8333 -80.6167 236° Southwest 390 449 22,900 -1,500 Descending Toronto Center
01:34PM 42.7833 -80.7167 236° Southwest 360 414 21,400 -1,500 Descending Toronto Center
01:35PM 42.7500 -80.8333 249° West 360 414 20,000 -720 Descending Toronto Center
01:36PM 42.7492 -80.9989 270° West 356 410 20,000  Level Cleveland Center
01:37PM 42.7297 -81.1344 259° West 361 415 20,000  Level Cleveland Center
01:38PM 42.7125 -81.2586 259° West 354 407 20,000  Level Cleveland Center
01:39PM 42.6908 -81.3939 258° West 362 417 20,000  Level Cleveland Center
01:40PM 42.6689 -81.5233 257° West 362 417 20,000  Level Cleveland Center
01:41PM 42.6489 -81.6614 259° West 369 425 20,000  Level Cleveland Center
01:42PM 42.6269 -81.7939 257° West 369 425 20,000  Level Cleveland Center
01:43PM 42.6044 -81.9286 257° West 369 425 20,000 -780 Level Cleveland Center
01:44PM 42.5839 -82.0664 259° West 369 425 18,500 -1,560 Descending Cleveland Center
01:45PM 42.5636 -82.1956 258° West 369 425 16,900 -1,740 Descending Cleveland Center
01:46PM 42.5428 -82.3247 258° West 364 419 15,100 -1,800 Descending Cleveland Center
01:47PM 42.5222 -82.4481 257° West 351 404 13,400 -1,740 Descending Cleveland Center
01:48PM 42.5017 -82.5603 256° West 344 396 12,100 -1,080 Descending Cleveland Center
01:49PM 42.4578 -82.6797 244° Southwest 270 311 11,300 -960 Descending Cleveland Center
01:50PM 42.4189 -82.7489 233° Southwest 288 331 10,000 -1,440 Descending Cleveland Center
01:51PM 42.3778 -82.8261 234° Southwest 265 305 8,400 -1,500 Descending Cleveland Center
01:52PM 42.4056 -82.9003 297° West 204 235 7,100 -720 Descending Cleveland Center
01:53PM 42.4519 -82.9722 311° West 212 244 7,000 -60 Descending Cleveland Center
01:54PM 42.5028 -83.0364 317° Northwest 189 217 7,000 -120 Level Cleveland Center
01:55PM 42.5397 -83.0603 335° Northwest 199 229 6,800 -480 Descending Cleveland Center
01:56PM 42.5242 -83.1047 245° Southwest 138 159 6,100 -360 Descending Cleveland Center
01:57PM 42.4886 -83.1328 210° Southwest 167 192 6,200 60 Climbing FAA TRACON SMA TRACON (SMA)
01:57PM 42.4764 -83.1411 207° Southwest 164 189 6,200 -300 Level FAA TRACON SMA TRACON (SMA)
01:57PM 42.4614 -83.1533 211° Southwest 166 191 6,000 -300 Descending FAA TRACON SMA TRACON (SMA)
01:58PM 42.4494 -83.1639 213° Southwest 170 196 6,000 -480 Level FAA TRACON SMA TRACON (SMA)
01:58PM 42.4347 -83.1764 212° Southwest 177 204 5,700 -900 Descending FAA TRACON SMA TRACON (SMA)
01:58PM 42.4231 -83.1856 210° Southwest 179 206 5,400 -1,080 Descending FAA TRACON SMA TRACON (SMA)
01:59PM 42.4064 -83.1975 208° Southwest 179 206 5,000 -1,080 Descending FAA TRACON SMA TRACON (SMA)
01:59PM 42.3900 -83.2089 207° Southwest 187 215 4,700 -900 Descending FAA TRACON SMA TRACON (SMA)
01:59PM 42.3756 -83.2189 207° Southwest 192 221 4,400 -1,080 Descending FAA TRACON SMA TRACON (SMA)
02:00PM 42.3589 -83.2308 208° Southwest 187 215 4,000 -1,080 Descending FAA TRACON SMA TRACON (SMA)
02:00PM 42.3461 -83.2406 209° Southwest 184 212 3,700 -1,200 Descending FAA TRACON SMA TRACON (SMA)
02:00PM 42.3292 -83.2533 209° Southwest 187 215 3,200 -1,080 Descending FAA TRACON SMA TRACON (SMA)
02:01PM 42.3181 -83.2622 211° Southwest 182 209 3,000 -960 Descending FAA TRACON SMA TRACON (SMA)
02:01PM 42.3008 -83.2750 209° Southwest 177 204 2,600 -1,080 Descending FAA TRACON SMA TRACON (SMA)
02:01PM 42.2881 -83.2842 208° Southwest 177 204 2,300 -900 Descending FAA TRACON SMA TRACON (SMA)
02:02PM 42.2714 -83.2961 208° Southwest 172 198 2,000 -900 Descending FAA TRACON SMA TRACON (SMA)
02:02PM 42.2603 -83.3042 208° Southwest 150 173 1,700 -900 Descending FAA TRACON SMA TRACON (SMA)
02:02PM 42.2478 -83.3133 208° Southwest 141 162 1,400 -780 Descending FAA TRACON SMA TRACON (SMA)
02:03PM 42.2358 -83.3225 210° Southwest 142 163 1,200 -720 Descending FAA TRACON SMA TRACON (SMA)
02:03PM 42.2236 -83.3311 208° Southwest 141 162 900 -720 Descending FAA TRACON SMA TRACON (SMA)
02:04PM 42.2114 -83.3403 209° Southwest 107 123 700 -360 Descending FAA TRACON SMA TRACON (SMA)
02:04PM 42.2083 -83.3425 208° Southwest 59 68 700  Level FAA TRACON SMA TRACON (SMA)
02:04PM 42.2083 -83.3425 360° North 59 68 700  Level FAA TRACON SMA TRACON (SMA)
02:06PM 42.2000 -83.3500 236° Southwest  Level FlightAware Approximate
02:13PM 42.2124 -83.3534 236° Southwest  Level Estimated